createdAt,value
2018-07-26T00:00:08.574Z,23.79
2018-07-26T00:01:08.556Z,23.81
2018-07-26T00:02:08.548Z,23.81
2018-07-26T00:03:08.537Z,23.69
2018-07-26T00:04:08.527Z,23.71
2018-07-26T00:05:08.846Z,23.70
2018-07-26T00:06:08.509Z,23.64
2018-07-26T00:07:08.499Z,23.64
2018-07-26T00:08:08.492Z,23.76
2018-07-26T00:09:08.482Z,23.67
2018-07-26T00:10:08.473Z,23.71
2018-07-26T00:11:08.462Z,23.69
2018-07-26T00:12:08.754Z,23.64
2018-07-26T00:13:08.447Z,23.71
2018-07-26T00:14:08.436Z,23.74
2018-07-26T00:15:08.427Z,23.67
2018-07-26T00:16:08.466Z,23.82
2018-07-26T00:17:08.411Z,23.71
2018-07-26T00:18:08.698Z,23.73
2018-07-26T00:19:08.391Z,23.71
2018-07-26T00:20:08.383Z,23.71
2018-07-26T00:21:08.371Z,23.63
2018-07-26T00:22:08.367Z,23.73
2018-07-26T00:23:08.355Z,23.69
2018-07-26T00:24:08.643Z,23.61
2018-07-26T00:25:08.336Z,23.63
2018-07-26T00:26:08.324Z,23.51
2018-07-26T00:27:08.315Z,23.45
2018-07-26T00:28:08.306Z,23.31
2018-07-26T00:29:08.296Z,23.31
2018-07-26T00:30:08.589Z,23.17
2018-07-26T00:31:08.277Z,23.08
2018-07-26T00:32:08.266Z,23.11
2018-07-26T00:33:08.263Z,23.07
2018-07-26T00:34:08.249Z,22.99
2018-07-26T00:35:08.238Z,23.14
2018-07-26T00:36:08.530Z,23.17
2018-07-26T00:37:08.220Z,23.23
2018-07-26T00:38:08.212Z,23.26
2018-07-26T00:39:08.201Z,23.26
2018-07-26T00:40:08.197Z,23.31
2018-07-26T00:41:08.182Z,23.33
2018-07-26T00:42:08.424Z,23.26
2018-07-26T00:43:08.162Z,23.31
2018-07-26T00:44:08.154Z,23.28
2018-07-26T00:45:08.145Z,23.29
2018-07-26T00:46:08.137Z,23.17
2018-07-26T00:47:08.124Z,23.13
2018-07-26T00:48:08.415Z,23.23
2018-07-26T00:49:08.115Z,23.18
2018-07-26T00:50:08.098Z,23.23
2018-07-26T00:51:08.085Z,23.15
2018-07-26T00:52:08.077Z,23.13
2018-07-26T00:53:08.067Z,23.17
2018-07-26T00:54:08.359Z,23.10
2018-07-26T00:55:08.047Z,23.06
2018-07-26T00:56:08.040Z,23.11
2018-07-26T00:57:08.028Z,23.10
2018-07-26T00:58:08.026Z,23.08
2018-07-26T00:59:08.008Z,23.06
2018-07-26T01:00:07.998Z,23.06
2018-07-26T01:01:08.289Z,22.95
2018-07-26T01:02:07.979Z,22.93
2018-07-26T01:03:07.970Z,22.89
2018-07-26T01:04:07.961Z,22.92
2018-07-26T01:05:07.953Z,22.91
2018-07-26T01:06:07.942Z,22.85
2018-07-26T01:07:07.931Z,22.85
2018-07-26T01:08:08.222Z,22.86
2018-07-26T01:09:07.911Z,22.86
2018-07-26T01:10:07.902Z,22.77
2018-07-26T01:11:07.890Z,22.78
2018-07-26T01:12:07.881Z,22.92
2018-07-26T01:13:07.873Z,22.86
2018-07-26T01:14:07.862Z,22.83
2018-07-26T01:15:08.153Z,22.85
2018-07-26T01:16:07.845Z,22.76
2018-07-26T01:17:07.832Z,22.71
2018-07-26T01:18:07.823Z,22.71
2018-07-26T01:19:07.813Z,22.67
2018-07-26T01:20:07.804Z,22.67
2018-07-26T01:21:07.795Z,22.70
2018-07-26T01:22:08.085Z,22.67
2018-07-26T01:23:07.774Z,22.71
2018-07-26T01:24:07.763Z,22.59
2018-07-26T01:25:07.759Z,22.58
2018-07-26T01:26:07.755Z,22.55
2018-07-26T01:27:07.736Z,22.56
2018-07-26T01:28:07.725Z,22.59
2018-07-26T01:29:08.016Z,22.61
2018-07-26T01:30:07.730Z,22.61
2018-07-26T01:31:07.693Z,22.58
2018-07-26T01:32:07.684Z,22.55
2018-07-26T01:33:07.673Z,22.61
2018-07-26T01:34:07.665Z,22.58
2018-07-26T01:35:07.654Z,22.55
2018-07-26T01:36:07.945Z,22.66
2018-07-26T01:37:07.633Z,22.64
2018-07-26T01:38:07.625Z,22.51
2018-07-26T01:39:07.614Z,22.53
2018-07-26T01:40:07.605Z,22.56
2018-07-26T01:41:07.594Z,22.48
2018-07-26T01:42:07.584Z,22.30
2018-07-26T01:43:07.873Z,22.37
2018-07-26T01:44:07.564Z,22.36
2018-07-26T01:45:07.555Z,22.30
2018-07-26T01:46:07.544Z,22.25
2018-07-26T01:47:07.554Z,22.27
2018-07-26T01:48:07.523Z,22.27
2018-07-26T01:49:07.815Z,22.21
2018-07-26T01:50:07.503Z,22.19
2018-07-26T01:51:07.493Z,22.21
2018-07-26T01:52:07.483Z,22.16
2018-07-26T01:53:07.474Z,22.15
2018-07-26T01:54:07.462Z,22.19
2018-07-26T01:55:07.752Z,22.15
2018-07-26T01:56:07.443Z,22.13
2018-07-26T01:57:07.431Z,22.19
2018-07-26T01:58:07.438Z,22.16
2018-07-26T01:59:07.417Z,22.19
2018-07-26T02:00:07.401Z,22.22
2018-07-26T02:01:07.645Z,22.11
2018-07-26T02:02:07.387Z,22.11
2018-07-26T02:03:07.370Z,21.98
2018-07-26T02:04:07.360Z,21.88
2018-07-26T02:05:07.351Z,21.91
2018-07-26T02:06:07.343Z,21.78
2018-07-26T02:07:07.631Z,21.75
2018-07-26T02:08:07.320Z,21.80
2018-07-26T02:09:07.309Z,21.63
2018-07-26T02:10:07.301Z,21.65
2018-07-26T02:11:07.287Z,21.56
2018-07-26T02:12:07.279Z,21.65
2018-07-26T02:13:07.520Z,21.67
2018-07-26T02:14:07.256Z,21.60
2018-07-26T02:15:07.247Z,21.56
2018-07-26T02:16:07.235Z,21.73
2018-07-26T02:17:07.226Z,21.59
2018-07-26T02:18:07.215Z,21.65
2018-07-26T02:19:07.506Z,21.58
2018-07-26T02:20:07.193Z,21.56
2018-07-26T02:21:07.183Z,21.55
2018-07-26T02:22:07.172Z,21.56
2018-07-26T02:26:36.690Z,21.50
2018-07-26T02:28:09.938Z,21.44
2018-07-26T02:28:36.666Z,21.53
2018-07-26T02:29:36.655Z,21.48
2018-07-26T02:30:36.944Z,21.59
2018-07-26T02:31:36.635Z,21.56
2018-07-26T02:32:36.623Z,21.56
2018-07-26T02:33:36.613Z,21.56
2018-07-26T02:34:36.600Z,21.55
2018-07-26T02:35:36.593Z,21.40
2018-07-26T02:36:36.584Z,21.30
2018-07-26T02:37:36.915Z,21.26
2018-07-26T02:38:36.558Z,21.23
2018-07-26T02:39:36.551Z,21.14
2018-07-26T02:40:36.542Z,21.13
2018-07-26T02:41:36.527Z,21.01
2018-07-26T02:42:36.516Z,21.04
2018-07-26T02:43:36.507Z,21.01
2018-07-26T02:44:36.795Z,21.01
2018-07-26T02:45:36.488Z,21.00
2018-07-26T02:46:36.510Z,21.01
2018-07-26T02:47:36.463Z,21.05
2018-07-26T02:48:36.456Z,21.03
2018-07-26T02:49:36.443Z,21.03
2018-07-26T02:50:36.432Z,21.00
2018-07-26T02:51:36.721Z,21.03
2018-07-26T02:52:36.408Z,21.01
2018-07-26T02:53:36.399Z,21.05
2018-07-26T02:54:36.388Z,21.00
2018-07-26T02:55:36.379Z,21.03
2018-07-26T02:56:36.365Z,21.01
2018-07-26T02:57:36.355Z,20.97
2018-07-26T02:58:36.644Z,20.95
2018-07-26T02:59:36.333Z,20.95
2018-07-26T03:00:36.322Z,21.00
2018-07-26T03:02:36.299Z,20.97
2018-07-26T03:03:36.287Z,21.00
2018-07-26T03:04:36.280Z,21.01
2018-07-26T03:05:36.569Z,20.97
2018-07-26T03:06:36.255Z,20.90
2018-07-26T03:07:36.245Z,20.85
2018-07-26T03:08:36.234Z,20.92
2018-07-26T03:09:36.225Z,20.86
2018-07-26T03:10:36.213Z,20.85
2018-07-26T03:11:36.200Z,20.90
2018-07-26T03:12:36.491Z,20.89
2018-07-26T03:13:36.200Z,21.05
2018-07-26T03:14:36.171Z,21.04
2018-07-26T03:15:36.159Z,21.08
2018-07-26T03:16:36.147Z,21.03
2018-07-26T03:17:36.136Z,21.03
2018-07-26T03:18:36.425Z,21.10
2018-07-26T03:19:36.114Z,21.01
2018-07-26T03:20:36.105Z,20.90
2018-07-26T03:21:36.092Z,20.90
2018-07-26T03:22:36.080Z,20.90
2018-07-26T03:24:12.663Z,20.90
2018-07-26T03:24:36.059Z,20.92
2018-07-26T03:25:36.047Z,20.85
2018-07-26T03:26:36.035Z,20.89
2018-07-26T03:27:36.328Z,20.95
2018-07-26T03:28:36.015Z,20.90
2018-07-26T03:29:36.004Z,20.89
2018-07-26T03:30:36.293Z,20.86
2018-07-26T03:31:35.984Z,20.86
2018-07-26T03:32:35.969Z,20.88
2018-07-26T03:33:36.261Z,20.73
2018-07-26T03:34:35.947Z,20.77
2018-07-26T03:35:35.938Z,20.73
2018-07-26T03:36:36.175Z,20.68
2018-07-26T03:37:35.914Z,20.64
2018-07-26T03:38:35.902Z,20.48
2018-07-26T03:39:35.894Z,20.55
2018-07-26T03:40:35.880Z,20.49
2018-07-26T03:41:35.877Z,20.44
2018-07-26T03:42:36.158Z,20.46
2018-07-26T03:43:35.909Z,20.42
2018-07-26T03:44:35.838Z,20.36
2018-07-26T03:45:35.827Z,20.30
2018-07-26T03:46:35.814Z,20.25
2018-07-26T03:47:35.802Z,20.27
2018-07-26T03:48:36.092Z,20.17
2018-07-26T03:49:35.782Z,20.14
2018-07-26T03:50:35.774Z,20.15
2018-07-26T03:51:35.759Z,20.04
2018-07-26T03:52:35.755Z,20.08
2018-07-26T03:53:35.735Z,20.04
2018-07-26T03:54:36.026Z,19.99
2018-07-26T03:55:35.711Z,19.94
2018-07-26T03:56:35.703Z,19.94
2018-07-26T03:57:35.690Z,19.93
2018-07-26T03:58:48.416Z,19.97
2018-07-26T03:59:35.670Z,19.93
2018-07-26T04:00:35.657Z,19.92
2018-07-26T04:01:35.900Z,19.86
2018-07-26T04:02:35.636Z,19.86
2018-07-26T04:03:35.624Z,19.99
2018-07-26T04:04:35.611Z,19.92
2018-07-26T04:05:35.652Z,20.02
2018-07-26T04:06:35.595Z,20.00
2018-07-26T04:07:35.578Z,19.94
2018-07-26T04:08:35.819Z,20.11
2018-07-26T04:09:35.556Z,20.09
2018-07-26T04:10:35.546Z,20.12
2018-07-26T04:11:35.535Z,20.12
2018-07-26T04:12:35.520Z,20.09
2018-07-26T04:13:35.516Z,20.07
2018-07-26T04:14:35.497Z,20.07
2018-07-26T04:15:35.787Z,20.04
2018-07-26T04:16:35.474Z,20.04
2018-07-26T04:17:35.476Z,20.07
2018-07-26T04:18:35.451Z,20.07
2018-07-26T04:19:35.440Z,20.08
2018-07-26T04:20:35.433Z,20.08
2018-07-26T04:21:35.424Z,20.15
2018-07-26T04:22:35.708Z,20.14
2018-07-26T04:23:35.394Z,20.23
2018-07-26T04:24:35.382Z,20.25
2018-07-26T04:25:35.371Z,20.19
2018-07-26T04:26:35.360Z,20.29
2018-07-26T04:27:35.365Z,20.27
2018-07-26T04:28:35.340Z,20.32
2018-07-26T04:29:35.629Z,20.26
2018-07-26T04:30:35.313Z,20.30
2018-07-26T04:31:35.304Z,20.34
2018-07-26T04:32:35.292Z,20.37
2018-07-26T04:33:35.281Z,20.34
2018-07-26T04:34:35.272Z,20.33
2018-07-26T04:35:35.261Z,20.44
2018-07-26T04:36:35.548Z,20.44
2018-07-26T04:37:35.246Z,20.48
2018-07-26T04:38:35.226Z,20.53
2018-07-26T04:39:35.213Z,20.58
2018-07-26T04:40:35.204Z,20.61
2018-07-26T04:41:35.242Z,20.68
2018-07-26T04:42:35.183Z,20.73
2018-07-26T04:43:35.471Z,20.71
2018-07-26T04:44:35.181Z,20.71
2018-07-26T04:45:35.147Z,20.65
2018-07-26T04:46:35.150Z,20.75
2018-07-26T04:47:35.125Z,20.75
2018-07-26T04:48:35.114Z,20.74
2018-07-26T04:49:35.104Z,20.85
2018-07-26T04:50:35.390Z,20.88
2018-07-26T04:51:35.091Z,20.86
2018-07-26T04:52:35.071Z,20.77
2018-07-26T04:53:35.058Z,20.73
2018-07-26T04:54:35.086Z,20.82
2018-07-26T04:55:35.041Z,20.74
2018-07-26T04:56:35.367Z,20.85
2018-07-26T04:57:35.012Z,20.90
2018-07-26T04:58:35.002Z,20.93
2018-07-26T04:59:34.994Z,20.90
2018-07-26T05:00:34.998Z,20.90
2018-07-26T05:01:34.970Z,20.86
2018-07-26T05:02:35.258Z,20.90
2018-07-26T05:03:34.946Z,20.97
2018-07-26T05:04:34.937Z,21.03
2018-07-26T05:05:34.925Z,20.95
2018-07-26T05:06:34.912Z,20.97
2018-07-26T05:07:34.902Z,21.00
2018-07-26T05:08:35.142Z,21.01
2018-07-26T05:09:34.883Z,21.00
2018-07-26T05:10:34.870Z,21.03
2018-07-26T05:11:34.858Z,21.08
2018-07-26T05:12:34.894Z,21.10
2018-07-26T05:13:34.867Z,21.11
2018-07-26T05:14:35.125Z,21.16
2018-07-26T05:15:34.814Z,21.14
2018-07-26T05:16:34.804Z,21.22
2018-07-26T05:17:34.794Z,21.29
2018-07-26T05:18:34.845Z,21.35
2018-07-26T05:19:34.772Z,21.41
2018-07-26T05:20:35.063Z,21.41
2018-07-26T05:21:34.755Z,21.41
2018-07-26T05:22:34.738Z,21.48
2018-07-26T05:23:34.729Z,21.50
2018-07-26T05:24:34.718Z,21.62
2018-07-26T05:25:34.709Z,21.56
2018-07-26T05:26:34.945Z,21.63
2018-07-26T05:27:34.688Z,21.66
2018-07-26T05:28:34.676Z,21.69
2018-07-26T05:29:34.662Z,21.77
2018-07-26T05:30:34.653Z,21.71
2018-07-26T05:31:34.641Z,21.77
2018-07-26T05:32:34.931Z,21.78
2018-07-26T05:33:34.750Z,21.88
2018-07-26T05:34:34.610Z,21.90
2018-07-26T05:35:34.600Z,21.85
2018-07-26T05:36:34.588Z,21.94
2018-07-26T05:37:34.611Z,21.93
2018-07-26T05:38:34.568Z,21.94
2018-07-26T05:39:34.930Z,22.01
2018-07-26T05:40:34.560Z,22.01
2018-07-26T05:41:34.541Z,22.11
2018-07-26T05:42:34.533Z,22.13
2018-07-26T05:43:34.515Z,22.12
2018-07-26T05:44:34.506Z,22.16
2018-07-26T05:45:34.494Z,22.22
2018-07-26T05:46:34.496Z,22.18
2018-07-26T05:47:34.473Z,22.28
2018-07-26T05:48:34.461Z,22.30
2018-07-26T05:49:34.454Z,22.33
2018-07-26T05:50:34.443Z,22.43
2018-07-26T05:51:34.444Z,22.52
2018-07-26T05:52:34.721Z,22.51
2018-07-26T05:53:34.451Z,22.55
2018-07-26T05:54:34.405Z,22.55
2018-07-26T05:55:34.409Z,22.58
2018-07-26T05:56:34.380Z,22.70
2018-07-26T05:57:34.371Z,22.70
2018-07-26T05:58:34.360Z,22.67
2018-07-26T05:59:34.651Z,22.70
2018-07-26T06:00:34.343Z,22.80
2018-07-26T06:01:34.334Z,22.92
2018-07-26T06:02:34.335Z,22.91
2018-07-26T06:03:34.317Z,22.96
2018-07-26T06:04:34.299Z,22.98
2018-07-26T06:05:34.591Z,22.96
2018-07-26T06:06:34.285Z,22.93
2018-07-26T06:07:34.269Z,23.08
2018-07-26T06:08:34.259Z,23.15
2018-07-26T06:09:34.365Z,23.15
2018-07-26T06:10:34.255Z,23.08
2018-07-26T06:11:34.540Z,23.22
2018-07-26T06:12:34.223Z,23.25
2018-07-26T06:13:34.228Z,23.31
2018-07-26T06:14:34.202Z,23.26
2018-07-26T06:15:34.190Z,23.37
2018-07-26T06:16:34.200Z,23.49
2018-07-26T06:17:34.471Z,23.44
2018-07-26T06:18:34.215Z,23.46
2018-07-26T06:19:34.147Z,23.55
2018-07-26T06:20:34.206Z,23.59
2018-07-26T06:21:34.148Z,23.59
2018-07-26T06:22:34.119Z,23.66
2018-07-26T06:23:34.424Z,23.63
2018-07-26T06:24:34.149Z,23.61
2018-07-26T06:25:34.093Z,23.71
2018-07-26T06:26:34.117Z,23.82
2018-07-26T06:27:34.085Z,23.76
2018-07-26T06:28:34.066Z,23.84
2018-07-26T06:29:34.356Z,23.73
2018-07-26T06:30:34.039Z,23.85
2018-07-26T06:31:34.061Z,23.91
2018-07-26T06:32:34.021Z,23.89
2018-07-26T06:33:34.049Z,23.92
2018-07-26T06:34:34.002Z,24.01
2018-07-26T06:35:33.992Z,24.06
2018-07-26T06:36:33.989Z,24.13
2018-07-26T06:37:33.971Z,24.21
2018-07-26T06:38:33.961Z,24.31
2018-07-26T06:39:34.077Z,24.36
2018-07-26T06:40:34.253Z,24.37
2018-07-26T06:41:33.935Z,24.47
2018-07-26T06:42:33.927Z,24.43
2018-07-26T06:43:33.959Z,24.59
2018-07-26T06:44:33.956Z,24.55
2018-07-26T06:45:33.902Z,24.53
2018-07-26T06:46:34.188Z,24.68
2018-07-26T06:47:33.877Z,24.62
2018-07-26T06:49:33.906Z,24.78
2018-07-26T06:50:33.849Z,24.84
2018-07-26T06:51:33.842Z,24.76
2018-07-26T06:52:34.142Z,24.99
2018-07-26T06:53:33.824Z,25.00
2018-07-26T06:54:33.825Z,25.04
2018-07-26T06:55:33.808Z,25.06
2018-07-26T06:56:33.797Z,25.15
2018-07-26T06:57:33.789Z,25.11
2018-07-26T06:58:34.075Z,25.14
2018-07-26T06:59:33.768Z,25.28
2018-07-26T07:00:33.813Z,25.33
2018-07-26T07:01:33.749Z,25.28
2018-07-26T07:02:33.740Z,25.40
2018-07-26T07:03:33.734Z,25.49
2018-07-26T07:04:33.731Z,25.58
2018-07-26T07:05:33.712Z,25.63
2018-07-26T07:06:33.726Z,25.70
2018-07-26T07:07:33.700Z,25.78
2018-07-26T07:08:33.698Z,25.85
2018-07-26T07:09:33.679Z,25.88
2018-07-26T07:10:33.966Z,25.90
2018-07-26T07:11:33.661Z,25.90
2018-07-26T07:12:33.649Z,26.00
2018-07-26T07:13:33.642Z,26.11
2018-07-26T07:14:33.633Z,26.20
2018-07-26T07:15:33.622Z,26.10
2018-07-26T07:16:33.916Z,26.24
2018-07-26T07:17:33.606Z,26.39
2018-07-26T07:18:33.596Z,26.36
2018-07-26T07:19:33.592Z,26.41
2018-07-26T07:20:33.606Z,26.43
2018-07-26T07:21:33.571Z,26.51
2018-07-26T07:22:34.418Z,26.57
2018-07-26T07:23:33.554Z,26.67
2018-07-26T07:24:33.544Z,26.64
2018-07-26T07:25:33.781Z,26.75
2018-07-26T07:26:33.529Z,26.76
2018-07-26T07:27:33.518Z,26.82
2018-07-26T07:28:33.512Z,26.93
2018-07-26T07:29:33.501Z,26.97
2018-07-26T07:30:33.502Z,27.01
2018-07-26T07:31:33.485Z,27.07
2018-07-26T07:32:33.476Z,27.04
2018-07-26T07:33:33.469Z,27.16
2018-07-26T07:34:33.460Z,27.30
2018-07-26T07:35:33.795Z,27.34
2018-07-26T07:36:33.447Z,27.49
2018-07-26T07:37:33.435Z,27.53
2018-07-26T07:38:33.425Z,27.68
2018-07-26T07:39:33.421Z,27.82
2018-07-26T07:40:33.412Z,27.94
2018-07-26T07:41:33.702Z,27.93
2018-07-26T07:42:33.398Z,28.03
2018-07-26T07:43:33.327Z,28.13
2018-07-26T07:44:33.322Z,28.24
2018-07-26T07:45:33.362Z,28.28
2018-07-26T07:46:33.356Z,28.43
2018-07-26T07:47:33.633Z,28.52
2018-07-26T07:48:33.325Z,28.62
2018-07-26T07:49:33.270Z,28.71
2018-07-26T07:50:33.255Z,28.75
2018-07-26T07:51:33.295Z,28.91
2018-07-26T07:52:33.238Z,29.00
2018-07-26T07:53:33.228Z,29.19
2018-07-26T07:54:33.520Z,29.31
2018-07-26T07:55:33.224Z,29.44
2018-07-26T07:56:33.206Z,29.59
2018-07-26T07:57:33.257Z,29.65
2018-07-26T07:58:33.233Z,29.68
2018-07-26T07:59:33.288Z,29.74
2018-07-26T08:00:33.479Z,29.74
2018-07-26T08:01:33.242Z,29.92
2018-07-26T08:02:33.180Z,30.00
2018-07-26T08:03:33.208Z,30.03
2018-07-26T08:04:33.154Z,29.98
2018-07-26T08:05:33.147Z,30.00
2018-07-26T08:06:33.439Z,30.11
2018-07-26T08:07:33.193Z,30.15
2018-07-26T08:08:33.130Z,30.18
2018-07-26T08:09:33.174Z,30.30
2018-07-26T08:10:33.129Z,30.32
2018-07-26T08:11:33.110Z,30.39
2018-07-26T08:12:33.499Z,30.55
2018-07-26T08:13:33.107Z,30.64
2018-07-26T08:14:33.089Z,30.67
2018-07-26T08:15:33.132Z,30.70
2018-07-26T08:16:33.078Z,30.85
2018-07-26T08:17:33.073Z,30.89
2018-07-26T08:18:33.369Z,30.86
2018-07-26T08:19:33.074Z,31.01
2018-07-26T08:20:33.056Z,31.08
2018-07-26T08:21:33.098Z,31.23
2018-07-26T08:22:33.043Z,31.27
2018-07-26T08:23:33.038Z,31.34
2018-07-26T08:24:33.334Z,31.46
2018-07-26T08:25:33.036Z,31.46
2018-07-26T08:26:33.023Z,31.44
2018-07-26T08:27:33.066Z,31.66
2018-07-26T08:28:33.033Z,31.67
2018-07-26T08:29:33.008Z,31.81
2018-07-26T08:30:33.302Z,31.81
2018-07-26T08:31:32.996Z,31.89
2018-07-26T08:32:32.996Z,31.99
2018-07-26T08:33:33.038Z,32.11
2018-07-26T08:34:33.025Z,32.21
2018-07-26T08:35:32.977Z,32.17
2018-07-26T08:36:32.972Z,32.26
2018-07-26T08:37:33.272Z,32.31
2018-07-26T08:38:32.963Z,32.53
2018-07-26T08:39:33.011Z,32.53
2018-07-26T08:40:32.953Z,32.63
2018-07-26T08:41:32.952Z,32.72
2018-07-26T08:42:32.996Z,32.80
2018-07-26T08:43:33.290Z,32.98
2018-07-26T08:44:32.957Z,33.04
2018-07-26T08:45:32.984Z,33.17
2018-07-26T08:46:32.949Z,33.06
2018-07-26T08:47:32.946Z,33.10
2018-07-26T08:48:32.921Z,33.22
2018-07-26T08:49:32.918Z,33.32
2018-07-26T08:50:32.911Z,33.36
2018-07-26T08:51:34.199Z,33.45
2018-07-26T08:52:32.907Z,33.37
2018-07-26T08:53:32.908Z,33.47
2018-07-26T08:54:32.896Z,33.48
2018-07-26T08:55:33.196Z,33.44
2018-07-26T08:56:32.895Z,33.49
2018-07-26T08:57:34.142Z,33.63
2018-07-26T08:58:32.895Z,33.60
2018-07-26T08:59:32.887Z,33.74
2018-07-26T09:00:32.898Z,33.81
2018-07-26T09:01:33.185Z,34.04
2018-07-26T09:02:32.892Z,33.79
2018-07-26T09:03:32.919Z,34.00
2018-07-26T09:04:32.870Z,34.01
2018-07-26T09:05:32.865Z,34.06
2018-07-26T09:06:32.862Z,34.15
2018-07-26T09:07:33.161Z,34.20
2018-07-26T09:08:32.866Z,34.28
2018-07-26T09:09:32.905Z,34.29
2018-07-26T09:10:32.856Z,34.38
2018-07-26T09:11:32.900Z,34.53
2018-07-26T09:12:32.869Z,34.44
2018-07-26T09:13:33.236Z,34.26
2018-07-26T09:14:32.844Z,34.48
2018-07-26T09:15:32.893Z,34.50
2018-07-26T09:16:32.856Z,34.66
2018-07-26T09:17:32.842Z,34.60
2018-07-26T09:18:32.867Z,34.64
2018-07-26T09:19:32.851Z,34.59
2018-07-26T09:20:32.859Z,34.63
2018-07-26T09:21:32.883Z,34.78
2018-07-26T09:22:32.831Z,34.79
2018-07-26T09:23:32.830Z,34.80
2018-07-26T09:24:32.886Z,34.86
2018-07-26T09:25:33.168Z,35.04
2018-07-26T09:26:32.830Z,35.20
2018-07-26T09:27:32.874Z,35.24
2018-07-26T09:28:32.829Z,35.28
2018-07-26T09:29:32.824Z,35.32
2018-07-26T09:30:32.827Z,35.32
2018-07-26T09:31:33.122Z,35.32
2018-07-26T09:32:32.845Z,35.42
2018-07-26T09:33:32.871Z,35.51
2018-07-26T09:34:32.824Z,35.41
2018-07-26T09:35:32.842Z,35.38
2018-07-26T09:36:32.820Z,35.47
2018-07-26T09:37:33.127Z,35.56
2018-07-26T09:38:32.854Z,35.73
2018-07-26T09:39:32.875Z,35.58
2018-07-26T09:40:32.821Z,35.65
2018-07-26T09:41:32.826Z,35.68
2018-07-26T09:42:32.829Z,35.87
2018-07-26T09:43:33.125Z,35.69
2018-07-26T09:44:32.822Z,35.72
2018-07-26T09:45:32.873Z,35.81
2018-07-26T09:46:32.822Z,35.70
2018-07-26T09:47:32.824Z,35.68
2018-07-26T09:48:32.831Z,35.85
2018-07-26T09:49:33.123Z,35.76
2018-07-26T09:50:32.823Z,36.03
2018-07-26T09:51:32.918Z,36.03
2018-07-26T09:52:32.824Z,36.13
2018-07-26T09:53:32.847Z,36.17
2018-07-26T09:54:32.829Z,36.23
2018-07-26T09:55:33.141Z,36.13
2018-07-26T09:56:32.828Z,36.06
2018-07-26T09:57:32.893Z,35.97
2018-07-26T09:58:32.829Z,35.91
2018-07-26T09:59:32.830Z,35.90
2018-07-26T10:00:32.831Z,36.04
2018-07-26T10:01:33.143Z,36.29
2018-07-26T10:02:32.860Z,36.45
2018-07-26T10:03:33.102Z,36.60
2018-07-26T10:04:32.835Z,36.45
2018-07-26T10:05:32.836Z,36.42
2018-07-26T10:06:32.847Z,36.52
2018-07-26T10:07:32.844Z,36.49
2018-07-26T10:08:33.142Z,36.60
2018-07-26T10:09:32.889Z,36.74
2018-07-26T10:10:32.839Z,36.81
2018-07-26T10:11:32.843Z,36.76
2018-07-26T10:12:32.844Z,36.86
2018-07-26T10:13:32.839Z,36.76
2018-07-26T10:14:33.140Z,36.78
2018-07-26T10:15:32.891Z,36.60
2018-07-26T10:16:32.845Z,36.78
2018-07-26T10:17:32.901Z,36.57
2018-07-26T10:18:32.854Z,36.70
2018-07-26T10:19:32.851Z,36.76
2018-07-26T10:20:33.149Z,36.75
2018-07-26T10:21:32.918Z,36.94
2018-07-26T10:22:32.876Z,37.26
2018-07-26T10:23:32.857Z,37.31
2018-07-26T10:24:32.885Z,37.35
2018-07-26T10:25:32.863Z,37.44
2018-07-26T10:26:32.863Z,37.61
2018-07-26T10:27:33.165Z,37.69
2018-07-26T10:28:32.913Z,37.54
2018-07-26T10:29:32.895Z,37.60
2018-07-26T10:30:32.876Z,37.57
2018-07-26T10:31:32.891Z,37.47
2018-07-26T10:32:32.878Z,37.32
2018-07-26T10:33:33.182Z,37.32
2018-07-26T10:34:32.901Z,37.58
2018-07-26T10:35:32.885Z,37.55
2018-07-26T10:36:32.895Z,37.54
2018-07-26T10:37:32.890Z,37.54
2018-07-26T10:38:32.897Z,37.61
2018-07-26T10:39:33.197Z,37.34
2018-07-26T10:40:32.897Z,37.41
2018-07-26T10:41:32.902Z,37.34
2018-07-26T10:42:32.905Z,37.64
2018-07-26T10:43:32.911Z,37.98
2018-07-26T10:44:32.957Z,37.85
2018-07-26T10:45:33.268Z,37.77
2018-07-26T10:46:32.933Z,37.95
2018-07-26T10:47:32.933Z,37.85
2018-07-26T10:48:32.966Z,38.04
2018-07-26T10:50:32.933Z,37.87
2018-07-26T10:51:33.286Z,38.04
2018-07-26T10:52:32.943Z,38.11
2018-07-26T10:53:32.983Z,38.11
2018-07-26T10:54:32.943Z,38.22
2018-07-26T10:55:32.951Z,38.20
2018-07-26T10:56:32.975Z,38.36
2018-07-26T10:57:33.257Z,38.32
2018-07-26T10:58:32.982Z,38.16
2018-07-26T10:59:33.019Z,38.42
2018-07-26T11:00:32.966Z,38.44
2018-07-26T11:01:33.012Z,38.30
2018-07-26T11:02:32.974Z,38.39
2018-07-26T11:03:33.027Z,38.59
2018-07-26T11:04:33.282Z,38.62
2018-07-26T11:05:32.990Z,38.42
2018-07-26T11:06:32.996Z,38.42
2018-07-26T11:07:32.994Z,38.51
2018-07-26T11:08:32.998Z,38.51
2018-07-26T11:09:33.099Z,38.67
2018-07-26T11:10:33.020Z,38.88
2018-07-26T11:11:33.321Z,39.05
2018-07-26T11:12:33.014Z,38.91
2018-07-26T11:13:33.017Z,38.89
2018-07-26T11:14:33.028Z,39.09
2018-07-26T11:15:33.074Z,38.85
2018-07-26T11:16:33.070Z,38.74
2018-07-26T11:17:33.340Z,38.71
2018-07-26T11:18:33.038Z,38.71
2018-07-26T11:19:33.043Z,38.82
2018-07-26T11:20:33.055Z,38.82
2018-07-26T11:21:33.101Z,38.63
2018-07-26T11:22:33.055Z,38.84
2018-07-26T11:23:33.059Z,38.70
2018-07-26T11:24:33.367Z,38.59
2018-07-26T11:25:33.129Z,38.92
2018-07-26T11:26:33.074Z,38.99
2018-07-26T11:27:33.128Z,39.11
2018-07-26T11:28:33.081Z,38.88
2018-07-26T11:29:33.096Z,38.85
2018-07-26T11:30:33.389Z,38.91
2018-07-26T11:31:33.099Z,38.92
2018-07-26T11:32:33.103Z,38.81
2018-07-26T11:33:33.157Z,38.73
2018-07-26T11:34:33.108Z,38.73
2018-07-26T11:35:33.113Z,38.91
2018-07-26T11:36:33.422Z,39.24
2018-07-26T11:37:33.120Z,39.16
2018-07-26T11:38:33.124Z,38.93
2018-07-26T11:39:33.178Z,39.01
2018-07-26T11:40:33.133Z,38.93
2018-07-26T11:41:33.144Z,39.16
2018-07-26T11:42:33.443Z,39.28
2018-07-26T11:43:33.154Z,39.57
2018-07-26T11:44:33.152Z,39.84
2018-07-26T11:45:33.206Z,39.89
2018-07-26T11:46:33.160Z,39.83
2018-07-26T11:47:33.164Z,39.74
2018-07-26T11:48:33.472Z,39.73
2018-07-26T11:49:33.174Z,39.86
2018-07-26T11:50:33.180Z,39.99
2018-07-26T11:51:33.244Z,39.89
2018-07-26T11:52:33.192Z,39.88
2018-07-26T11:53:33.200Z,39.31
2018-07-26T11:54:33.505Z,38.88
2018-07-26T11:55:33.210Z,38.86
2018-07-26T11:56:33.211Z,38.41
2018-07-26T11:57:33.266Z,38.60
2018-07-26T11:58:33.224Z,38.74
2018-07-26T11:59:33.228Z,38.85
2018-07-26T12:00:33.238Z,39.09
2018-07-26T12:01:33.571Z,39.39
2018-07-26T12:02:33.284Z,39.49
2018-07-26T12:03:33.300Z,39.91
2018-07-26T12:04:33.254Z,39.95
2018-07-26T12:05:33.297Z,40.10
2018-07-26T12:06:33.265Z,40.41
2018-07-26T12:07:33.569Z,40.40
2018-07-26T12:08:33.274Z,40.21
2018-07-26T12:09:33.330Z,40.13
2018-07-26T12:10:33.285Z,39.94
2018-07-26T12:11:33.291Z,39.53
2018-07-26T12:12:33.300Z,39.65
2018-07-26T12:13:33.301Z,39.76
2018-07-26T12:14:33.609Z,40.05
2018-07-26T12:15:33.362Z,40.25
2018-07-26T12:16:33.319Z,40.33
2018-07-26T12:17:33.359Z,40.55
2018-07-26T12:18:33.332Z,40.74
2018-07-26T12:19:33.381Z,40.25
2018-07-26T12:20:33.346Z,39.84
2018-07-26T12:21:33.399Z,40.16
2018-07-26T12:22:33.355Z,40.05
2018-07-26T12:23:33.359Z,40.21
2018-07-26T12:24:33.367Z,40.20
2018-07-26T12:25:33.373Z,40.41
2018-07-26T12:26:33.679Z,40.23
2018-07-26T12:27:33.434Z,40.23
2018-07-26T12:28:33.392Z,40.40
2018-07-26T12:29:33.399Z,40.64
2018-07-26T12:30:33.404Z,40.67
2018-07-26T12:31:33.412Z,40.74
2018-07-26T12:32:33.420Z,40.72
2018-07-26T12:33:33.474Z,40.14
2018-07-26T12:34:33.430Z,40.08
2018-07-26T12:35:33.438Z,40.18
2018-07-26T12:36:33.442Z,40.05
2018-07-26T12:37:33.451Z,40.20
2018-07-26T12:38:33.455Z,40.40
2018-07-26T12:39:33.772Z,40.59
2018-07-26T12:40:33.493Z,40.78
2018-07-26T12:41:33.479Z,40.96
2018-07-26T12:42:33.483Z,41.08
2018-07-26T12:43:33.507Z,41.01
2018-07-26T12:44:33.509Z,41.05
2018-07-26T12:45:33.803Z,40.94
2018-07-26T12:46:33.511Z,40.94
2018-07-26T12:47:33.587Z,41.20
2018-07-26T12:48:33.526Z,40.86
2018-07-26T12:49:33.535Z,40.77
2018-07-26T12:50:33.539Z,41.02
2018-07-26T12:51:33.600Z,41.18
2018-07-26T12:52:33.858Z,41.46
2018-07-26T12:53:33.567Z,41.49
2018-07-26T12:54:33.569Z,41.06
2018-07-26T12:55:33.591Z,39.70
2018-07-26T12:56:33.581Z,38.62
2018-07-26T12:57:33.641Z,37.73
2018-07-26T12:58:33.900Z,37.13